sensor_id;sensor_type;location;lat;lon;timestamp;pressure;altitude;pressure_sealevel;temperature;humidity
7309;BME280;3695;53.330;9.876;2023-04-19T00:00:05;103625.03;;;6.18;100.00
7309;BME280;3695;53.330;9.876;2023-04-19T00:02:32;103551.09;;;6.22;100.00
7309;BME280;3695;53.330;9.876;2023-04-19T00:04:59;103555.69;;;6.09;100.00
7309;BME280;3695;53.330;9.876;2023-04-19T00:07:26;103527.69;;;6.00;100.00
7309;BME280;3695;53.330;9.876;2023-04-19T00:09:52;103653.56;;;6.20;100.00
7309;BME280;3695;53.330;9.876;2023-04-19T00:12:18;103528.41;;;5.91;100.00
7309;BME280;3695;53.330;9.876;2023-04-19T00:14:45;103537.22;;;5.93;100.00
7309;BME280;3695;53.330;9.876;2023-04-19T00:17:13;103553.38;;;5.93;100.00
7309;BME280;3695;53.330;9.876;2023-04-19T00:19:39;103609.91;;;6.04;100.00
7309;BME280;3695;53.330;9.876;2023-04-19T00:22:06;103516.13;;;5.87;100.00
7309;BME280;3695;53.330;9.876;2023-04-19T00:24:32;103649.09;;;6.08;100.00
7309;BME280;3695;53.330;9.876;2023-04-19T00:26:58;103546.28;;;6.03;100.00
7309;BME280;3695;53.330;9.876;2023-04-19T00:29:26;103483.34;;;5.82;100.00
7309;BME280;3695;53.330;9.876;2023-04-19T00:31:52;103630.91;;;5.88;100.00
7309;BME280;3695;53.330;9.876;2023-04-19T00:34:20;103567.63;;;5.71;100.00
7309;BME280;3695;53.330;9.876;2023-04-19T00:36:47;103663.44;;;5.85;100.00
7309;BME280;3695;53.330;9.876;2023-04-19T00:39:13;103507.28;;;5.62;100.00
7309;BME280;3695;53.330;9.876;2023-04-19T00:41:40;103631.72;;;5.77;100.00
7309;BME280;3695;53.330;9.876;2023-04-19T00:44:06;103530.75;;;5.60;100.00
7309;BME280;3695;53.330;9.876;2023-04-19T00:46:33;103538.31;;;5.55;100.00
7309;BME280;3695;53.330;9.876;2023-04-19T00:49:00;103582.22;;;5.56;100.00
7309;BME280;3695;53.330;9.876;2023-04-19T00:51:28;103630.03;;;5.52;100.00
7309;BME280;3695;53.330;9.876;2023-04-19T00:53:55;103616.84;;;5.60;100.00
7309;BME280;3695;53.330;9.876;2023-04-19T00:56:22;103586.50;;;5.58;100.00
7309;BME280;3695;53.330;9.876;2023-04-19T00:58:52;103551.06;;;5.64;100.00
7309;BME280;3695;53.330;9.876;2023-04-19T01:01:18;103552.50;;;5.57;100.00
7309;BME280;3695;53.330;9.876;2023-04-19T01:03:45;103643.81;;;5.72;100.00
7309;BME280;3695;53.330;9.876;2023-04-19T01:06:12;103539.28;;;5.54;100.00
7309;BME280;3695;53.330;9.876;2023-04-19T01:08:41;103605.47;;;5.57;100.00
7309;BME280;3695;53.330;9.876;2023-04-19T01:11:07;103565.22;;;5.55;100.00
7309;BME280;3695;53.330;9.876;2023-04-19T01:13:33;103535.09;;;5.39;100.00
7309;BME280;3695;53.330;9.876;2023-04-19T01:16:00;103539.97;;;5.34;100.00
7309;BME280;3695;53.330;9.876;2023-04-19T01:18:26;103548.78;;;5.36;100.00
7309;BME280;3695;53.330;9.876;2023-04-19T01:20:57;103557.06;;;5.33;100.00
7309;BME280;3695;53.330;9.876;2023-04-19T01:23:24;103658.88;;;5.50;100.00
7309;BME280;3695;53.330;9.876;2023-04-19T01:25:51;103618.25;;;5.42;100.00
7309;BME280;3695;53.330;9.876;2023-04-19T01:28:17;103557.91;;;5.22;100.00
7309;BME280;3695;53.330;9.876;2023-04-19T01:30:44;103602.75;;;5.22;100.00
7309;BME280;3695;53.330;9.876;2023-04-19T01:33:10;103607.81;;;5.14;100.00
7309;BME280;3695;53.330;9.876;2023-04-19T01:35:37;103685.88;;;5.25;100.00
7309;BME280;3695;53.330;9.876;2023-04-19T01:38:03;103520.38;;;5.21;100.00
7309;BME280;3695;53.330;9.876;2023-04-19T01:40:31;103600.81;;;5.24;100.00
7309;BME280;3695;53.330;9.876;2023-04-19T01:42:58;103584.56;;;5.25;100.00
7309;BME280;3695;53.330;9.876;2023-04-19T01:45:24;103607.16;;;5.23;100.00
7309;BME280;3695;53.330;9.876;2023-04-19T01:47:51;103534.72;;;5.09;100.00
7309;BME280;3695;53.330;9.876;2023-04-19T01:50:17;103595.66;;;5.21;100.00
7309;BME280;3695;53.330;9.876;2023-04-19T01:52:44;103578.97;;;5.16;100.00
7309;BME280;3695;53.330;9.876;2023-04-19T01:55:10;103541.63;;;5.00;100.00
7309;BME280;3695;53.330;9.876;2023-04-19T01:57:38;103519.50;;;4.96;100.00
7309;BME280;3695;53.330;9.876;2023-04-19T02:00:06;103510.69;;;4.94;100.00
7309;BME280;3695;53.330;9.876;2023-04-19T02:02:32;103567.66;;;4.99;100.00
7309;BME280;3695;53.330;9.876;2023-04-19T02:05:01;103566.50;;;4.91;100.00
7309;BME280;3695;53.330;9.876;2023-04-19T02:07:27;103607.00;;;5.00;100.00
7309;BME280;3695;53.330;9.876;2023-04-19T02:09:54;103657.09;;;5.01;100.00
7309;BME280;3695;53.330;9.876;2023-04-19T02:12:20;103578.88;;;4.93;100.00
7309;BME280;3695;53.330;9.876;2023-04-19T02:14:48;103563.47;;;4.95;100.00
7309;BME280;3695;53.330;9.876;2023-04-19T02:17:15;103573.94;;;4.87;100.00
7309;BME280;3695;53.330;9.876;2023-04-19T02:19:41;103665.94;;;4.91;100.00
7309;BME280;3695;53.330;9.876;2023-04-19T02:22:08;103610.72;;;4.87;100.00
7309;BME280;3695;53.330;9.876;2023-04-19T02:24:34;103535.56;;;4.85;100.00
7309;BME280;3695;53.330;9.876;2023-04-19T02:27:01;103594.19;;;4.80;100.00
7309;BME280;3695;53.330;9.876;2023-04-19T02:29:27;103553.53;;;4.72;100.00
7309;BME280;3695;53.330;9.876;2023-04-19T02:31:55;103585.59;;;4.75;100.00
7309;BME280;3695;53.330;9.876;2023-04-19T02:34:21;103589.25;;;4.74;100.00
7309;BME280;3695;53.330;9.876;2023-04-19T02:36:48;103594.63;;;4.74;100.00
7309;BME280;3695;53.330;9.876;2023-04-19T02:39:14;103639.53;;;4.85;100.00
7309;BME280;3695;53.330;9.876;2023-04-19T02:41:41;103542.06;;;4.70;100.00
7309;BME280;3695;53.330;9.876;2023-04-19T02:44:07;103632.53;;;4.82;100.00
7309;BME280;3695;53.330;9.876;2023-04-19T02:46:34;103536.84;;;4.56;100.00
7309;BME280;3695;53.330;9.876;2023-04-19T02:49:02;103581.88;;;4.52;100.00
7309;BME280;3695;53.330;9.876;2023-04-19T02:51:29;103678.22;;;4.69;100.00
7309;BME280;3695;53.330;9.876;2023-04-19T02:53:55;103580.69;;;4.56;100.00
7309;BME280;3695;53.330;9.876;2023-04-19T02:56:22;103635.88;;;4.60;100.00
7309;BME280;3695;53.330;9.876;2023-04-19T02:58:48;103643.09;;;4.60;100.00
7309;BME280;3695;53.330;9.876;2023-04-19T03:01:14;103641.81;;;4.53;100.00
7309;BME280;3695;53.330;9.876;2023-04-19T03:03:41;103572.41;;;4.47;100.00
7309;BME280;3695;53.330;9.876;2023-04-19T03:06:09;103673.50;;;4.48;100.00
7309;BME280;3695;53.330;9.876;2023-04-19T03:08:35;103544.53;;;4.36;100.00
7309;BME280;3695;53.330;9.876;2023-04-19T03:11:02;103573.09;;;4.37;100.00
7309;BME280;3695;53.330;9.876;2023-04-19T03:13:28;103606.50;;;4.33;100.00
7309;BME280;3695;53.330;9.876;2023-04-19T03:15:55;103704.13;;;4.45;100.00
7309;BME280;3695;53.330;9.876;2023-04-19T03:18:21;103585.75;;;4.35;100.00
7309;BME280;3695;53.330;9.876;2023-04-19T03:20:47;103627.44;;;4.41;100.00
7309;BME280;3695;53.330;9.876;2023-04-19T03:23:15;103663.53;;;4.50;100.00
7309;BME280;3695;53.330;9.876;2023-04-19T03:25:42;103560.75;;;4.35;100.00
7309;BME280;3695;53.330;9.876;2023-04-19T03:28:08;103698.44;;;4.50;100.00
7309;BME280;3695;53.330;9.876;2023-04-19T03:30:34;103516.91;;;4.34;100.00
7309;BME280;3695;53.330;9.876;2023-04-19T03:33:01;103576.41;;;4.41;100.00
7309;BME280;3695;53.330;9.876;2023-04-19T03:35:28;103544.22;;;4.28;100.00
7309;BME280;3695;53.330;9.876;2023-04-19T03:37:56;103679.63;;;4.50;100.00
7309;BME280;3695;53.330;9.876;2023-04-19T03:40:24;103605.41;;;4.36;100.00
7309;BME280;3695;53.330;9.876;2023-04-19T03:42:50;103657.81;;;4.54;100.00
7309;BME280;3695;53.330;9.876;2023-04-19T03:45:17;103545.13;;;4.53;100.00
7309;BME280;3695;53.330;9.876;2023-04-19T03:47:43;103584.88;;;4.48;100.00
7309;BME280;3695;53.330;9.876;2023-04-19T03:50:10;103626.03;;;4.48;100.00
7309;BME280;3695;53.330;9.876;2023-04-19T03:52:36;103600.56;;;4.54;100.00
7309;BME280;3695;53.330;9.876;2023-04-19T03:55:03;103625.78;;;4.64;100.00
7309;BME280;3695;53.330;9.876;2023-04-19T03:57:31;103563.69;;;4.56;100.00
7309;BME280;3695;53.330;9.876;2023-04-19T03:59:58;103501.63;;;4.48;100.00
7309;BME280;3695;53.330;9.876;2023-04-19T04:02:25;103627.06;;;4.71;100.00
7309;BME280;3695;53.330;9.876;2023-04-19T04:04:52;103595.50;;;4.62;100.00
7309;BME280;3695;53.330;9.876;2023-04-19T04:07:19;103588.19;;;4.64;100.00
7309;BME280;3695;53.330;9.876;2023-04-19T04:09:47;103549.47;;;4.66;100.00
7309;BME280;3695;53.330;9.876;2023-04-19T04:12:13;103570.13;;;4.66;100.00
7309;BME280;3695;53.330;9.876;2023-04-19T04:14:41;103607.28;;;4.72;100.00
7309;BME280;3695;53.330;9.876;2023-04-19T04:17:08;103589.88;;;4.78;100.00
7309;BME280;3695;53.330;9.876;2023-04-19T04:19:34;103586.47;;;4.76;100.00
7309;BME280;3695;53.330;9.876;2023-04-19T04:22:01;103551.94;;;4.82;100.00
7309;BME280;3695;53.330;9.876;2023-04-19T04:24:27;103571.47;;;4.84;100.00
7309;BME280;3695;53.330;9.876;2023-04-19T04:26:55;103630.69;;;4.95;100.00
7309;BME280;3695;53.330;9.876;2023-04-19T04:29:22;103539.97;;;4.86;100.00
7309;BME280;3695;53.330;9.876;2023-04-19T04:31:49;103513.16;;;4.97;100.00
7309;BME280;3695;53.330;9.876;2023-04-19T04:34:16;103540.31;;;5.05;100.00
7309;BME280;3695;53.330;9.876;2023-04-19T04:36:42;103515.16;;;5.06;100.00
7309;BME280;3695;53.330;9.876;2023-04-19T04:39:09;103508.28;;;5.02;100.00
7309;BME280;3695;53.330;9.876;2023-04-19T04:41:36;103579.22;;;5.13;100.00
7309;BME280;3695;53.330;9.876;2023-04-19T04:44:06;103587.75;;;5.30;100.00
7309;BME280;3695;53.330;9.876;2023-04-19T04:46:33;103514.53;;;5.27;100.00
7309;BME280;3695;53.330;9.876;2023-04-19T04:49:01;103506.69;;;5.24;100.00
7309;BME280;3695;53.330;9.876;2023-04-19T04:51:27;103533.84;;;5.32;100.00
7309;BME280;3695;53.330;9.876;2023-04-19T04:53:54;103638.31;;;5.49;100.00
7309;BME280;3695;53.330;9.876;2023-04-19T04:56:20;103608.72;;;5.49;100.00
7309;BME280;3695;53.330;9.876;2023-04-19T04:58:47;103567.16;;;5.53;100.00
7309;BME280;3695;53.330;9.876;2023-04-19T05:01:13;103543.47;;;5.58;100.00
7309;BME280;3695;53.330;9.876;2023-04-19T05:03:43;103604.34;;;5.83;100.00
7309;BME280;3695;53.330;9.876;2023-04-19T05:06:11;103597.19;;;5.95;100.00
7309;BME280;3695;53.330;9.876;2023-04-19T05:08:37;103571.97;;;5.96;100.00
7309;BME280;3695;53.330;9.876;2023-04-19T05:11:04;103466.00;;;5.97;100.00
7309;BME280;3695;53.330;9.876;2023-04-19T05:13:30;103573.22;;;6.14;100.00
7309;BME280;3695;53.330;9.876;2023-04-19T05:15:57;103648.69;;;6.70;100.00
7309;BME280;3695;53.330;9.876;2023-04-19T05:18:23;103458.19;;;6.71;100.00
7309;BME280;3695;53.330;9.876;2023-04-19T05:20:50;103393.16;;;6.64;100.00
7309;BME280;3695;53.330;9.876;2023-04-19T05:23:17;103324.03;;;6.42;100.00
7309;BME280;3695;53.330;9.876;2023-04-19T05:25:44;103475.47;;;6.57;100.00
7309;BME280;3695;53.330;9.876;2023-04-19T05:28:10;103395.75;;;6.54;100.00
7309;BME280;3695;53.330;9.876;2023-04-19T05:30:37;103343.63;;;6.44;100.00
7309;BME280;3695;53.330;9.876;2023-04-19T05:33:03;103417.69;;;6.50;100.00
7309;BME280;3695;53.330;9.876;2023-04-19T05:35:30;103480.88;;;6.68;100.00
7309;BME280;3695;53.330;9.876;2023-04-19T05:37:56;103354.44;;;6.65;100.00
7309;BME280;3695;53.330;9.876;2023-04-19T05:40:24;103494.31;;;6.79;100.00
7309;BME280;3695;53.330;9.876;2023-04-19T05:42:50;103433.03;;;6.81;100.00
7309;BME280;3695;53.330;9.876;2023-04-19T05:45:17;103402.19;;;6.74;100.00
7309;BME280;3695;53.330;9.876;2023-04-19T05:47:43;103417.84;;;6.80;100.00
7309;BME280;3695;53.330;9.876;2023-04-19T05:50:10;103462.13;;;6.99;100.00
7309;BME280;3695;53.330;9.876;2023-04-19T05:52:37;103415.63;;;7.06;100.00
7309;BME280;3695;53.330;9.876;2023-04-19T05:55:04;103318.22;;;7.00;100.00
7309;BME280;3695;53.330;9.876;2023-04-19T05:57:32;103400.91;;;7.10;100.00
7309;BME280;3695;53.330;9.876;2023-04-19T05:59:58;103292.41;;;7.07;100.00
7309;BME280;3695;53.330;9.876;2023-04-19T06:02:26;103370.91;;;7.24;100.00
7309;BME280;3695;53.330;9.876;2023-04-19T06:04:52;103374.31;;;7.26;100.00
7309;BME280;3695;53.330;9.876;2023-04-19T06:07:19;103347.66;;;7.33;100.00
7309;BME280;3695;53.330;9.876;2023-04-19T06:09:45;103284.16;;;7.29;100.00
7309;BME280;3695;53.330;9.876;2023-04-19T06:12:12;103371.44;;;7.49;100.00
7309;BME280;3695;53.330;9.876;2023-04-19T06:14:39;103315.91;;;7.46;100.00
7309;BME280;3695;53.330;9.876;2023-04-19T06:17:06;103244.69;;;7.28;100.00
7309;BME280;3695;53.330;9.876;2023-04-19T06:19:33;103400.44;;;7.56;100.00
7309;BME280;3695;53.330;9.876;2023-04-19T06:22:00;103300.00;;;7.53;100.00
7309;BME280;3695;53.330;9.876;2023-04-19T06:24:27;103363.41;;;7.58;100.00
7309;BME280;3695;53.330;9.876;2023-04-19T06:26:53;103288.59;;;7.70;100.00
7309;BME280;3695;53.330;9.876;2023-04-19T06:29:20;103317.13;;;7.63;100.00
7309;BME280;3695;53.330;9.876;2023-04-19T06:31:49;103353.81;;;7.75;100.00
7309;BME280;3695;53.330;9.876;2023-04-19T06:34:15;103313.88;;;7.69;100.00
7309;BME280;3695;53.330;9.876;2023-04-19T06:36:42;103289.72;;;7.77;100.00
7309;BME280;3695;53.330;9.876;2023-04-19T06:39:08;103254.06;;;7.74;100.00
7309;BME280;3695;53.330;9.876;2023-04-19T06:41:35;103254.19;;;7.72;100.00
7309;BME280;3695;53.330;9.876;2023-04-19T06:44:01;103310.34;;;7.78;100.00
7309;BME280;3695;53.330;9.876;2023-04-19T06:46:28;103203.47;;;7.66;100.00
7309;BME280;3695;53.330;9.876;2023-04-19T06:48:56;103264.84;;;7.74;100.00
7309;BME280;3695;53.330;9.876;2023-04-19T06:51:22;103259.19;;;7.77;100.00
7309;BME280;3695;53.330;9.876;2023-04-19T06:53:49;103222.81;;;7.81;100.00
7309;BME280;3695;53.330;9.876;2023-04-19T06:56:16;103274.13;;;8.00;100.00
7309;BME280;3695;53.330;9.876;2023-04-19T06:58:42;103316.69;;;8.17;100.00
7309;BME280;3695;53.330;9.876;2023-04-19T07:01:09;103369.00;;;8.16;100.00
7309;BME280;3695;53.330;9.876;2023-04-19T07:03:36;103372.84;;;8.24;100.00
7309;BME280;3695;53.330;9.876;2023-04-19T07:06:04;103370.56;;;8.19;100.00
7309;BME280;3695;53.330;9.876;2023-04-19T07:08:30;103378.94;;;8.16;100.00
7309;BME280;3695;53.330;9.876;2023-04-19T07:10:57;103362.94;;;8.34;100.00
7309;BME280;3695;53.330;9.876;2023-04-19T07:13:23;103368.28;;;8.14;100.00
7309;BME280;3695;53.330;9.876;2023-04-19T07:15:50;103354.50;;;8.17;100.00
7309;BME280;3695;53.330;9.876;2023-04-19T07:18:16;103353.84;;;8.35;100.00
7309;BME280;3695;53.330;9.876;2023-04-19T07:20:43;103353.69;;;8.36;100.00
7309;BME280;3695;53.330;9.876;2023-04-19T07:23:14;103348.56;;;8.43;100.00
7309;BME280;3695;53.330;9.876;2023-04-19T07:25:41;103347.19;;;8.58;100.00
7309;BME280;3695;53.330;9.876;2023-04-19T07:28:07;103346.31;;;8.67;100.00
7309;BME280;3695;53.330;9.876;2023-04-19T07:30:34;103338.63;;;8.53;100.00
7309;BME280;3695;53.330;9.876;2023-04-19T07:33:01;103338.94;;;8.60;100.00
7309;BME280;3695;53.330;9.876;2023-04-19T07:35:28;103339.19;;;8.66;100.00
7309;BME280;3695;53.330;9.876;2023-04-19T07:37:54;103336.63;;;8.74;100.00
7309;BME280;3695;53.330;9.876;2023-04-19T07:40:22;103330.34;;;8.83;100.00
7309;BME280;3695;53.330;9.876;2023-04-19T07:42:49;103333.75;;;8.95;100.00
7309;BME280;3695;53.330;9.876;2023-04-19T07:45:16;103330.44;;;9.11;100.00
7309;BME280;3695;53.330;9.876;2023-04-19T07:47:42;103331.13;;;9.23;100.00
7309;BME280;3695;53.330;9.876;2023-04-19T07:50:09;103326.16;;;9.18;100.00
7309;BME280;3695;53.330;9.876;2023-04-19T07:52:36;103331.09;;;9.32;100.00
7309;BME280;3695;53.330;9.876;2023-04-19T07:55:03;103327.50;;;9.41;100.00
7309;BME280;3695;53.330;9.876;2023-04-19T07:57:31;103323.63;;;9.54;100.00
7309;BME280;3695;53.330;9.876;2023-04-19T07:59:58;103317.81;;;9.39;100.00
7309;BME280;3695;53.330;9.876;2023-04-19T08:02:26;103313.28;;;9.67;100.00
7309;BME280;3695;53.330;9.876;2023-04-19T08:04:52;103315.88;;;9.86;100.00
7309;BME280;3695;53.330;9.876;2023-04-19T08:07:19;103314.38;;;9.74;100.00
7309;BME280;3695;53.330;9.876;2023-04-19T08:09:47;103310.75;;;10.10;100.00
7309;BME280;3695;53.330;9.876;2023-04-19T08:12:14;103304.34;;;9.84;100.00
7309;BME280;3695;53.330;9.876;2023-04-19T08:14:41;103306.63;;;10.06;100.00
7309;BME280;3695;53.330;9.876;2023-04-19T08:17:08;103302.38;;;10.04;100.00
7309;BME280;3695;53.330;9.876;2023-04-19T08:19:34;103305.28;;;10.38;100.00
7309;BME280;3695;53.330;9.876;2023-04-19T08:22:01;103302.88;;;10.35;100.00
7309;BME280;3695;53.330;9.876;2023-04-19T08:24:28;103306.91;;;10.31;100.00
7309;BME280;3695;53.330;9.876;2023-04-19T08:26:55;103313.13;;;10.41;100.00
7309;BME280;3695;53.330;9.876;2023-04-19T08:29:22;103303.03;;;10.33;100.00
7309;BME280;3695;53.330;9.876;2023-04-19T08:31:49;103297.38;;;10.62;100.00
7309;BME280;3695;53.330;9.876;2023-04-19T08:34:16;103283.81;;;10.62;100.00
7309;BME280;3695;53.330;9.876;2023-04-19T08:36:42;103282.16;;;10.69;100.00
7309;BME280;3695;53.330;9.876;2023-04-19T08:39:10;103291.63;;;10.65;100.00
7309;BME280;3695;53.330;9.876;2023-04-19T08:41:37;103283.84;;;10.88;100.00
7309;BME280;3695;53.330;9.876;2023-04-19T08:44:05;103289.63;;;10.93;100.00
7309;BME280;3695;53.330;9.876;2023-04-19T08:46:32;103281.00;;;10.72;100.00
7309;BME280;3695;53.330;9.876;2023-04-19T08:49:00;103278.81;;;10.76;100.00
7309;BME280;3695;53.330;9.876;2023-04-19T08:51:27;103271.91;;;10.81;100.00
7309;BME280;3695;53.330;9.876;2023-04-19T08:53:55;103268.53;;;10.87;100.00
7309;BME280;3695;53.330;9.876;2023-04-19T08:56:22;103263.44;;;11.10;100.00
7309;BME280;3695;53.330;9.876;2023-04-19T08:58:49;103251.91;;;11.08;100.00
7309;BME280;3695;53.330;9.876;2023-04-19T09:01:16;103256.84;;;11.13;100.00
7309;BME280;3695;53.330;9.876;2023-04-19T09:03:42;103248.28;;;11.33;100.00
7309;BME280;3695;53.330;9.876;2023-04-19T09:06:11;103252.06;;;11.41;100.00
7309;BME280;3695;53.330;9.876;2023-04-19T09:08:39;103245.25;;;11.37;100.00
7309;BME280;3695;53.330;9.876;2023-04-19T09:11:05;103233.28;;;11.21;100.00
7309;BME280;3695;53.330;9.876;2023-04-19T09:13:32;103237.56;;;11.32;100.00
7309;BME280;3695;53.330;9.876;2023-04-19T09:16:01;103243.56;;;11.35;100.00
7309;BME280;3695;53.330;9.876;2023-04-19T09:18:28;103236.66;;;11.57;100.00
7309;BME280;3695;53.330;9.876;2023-04-19T09:20:55;103244.59;;;11.43;100.00
7309;BME280;3695;53.330;9.876;2023-04-19T09:23:25;103232.97;;;11.24;100.00
7309;BME280;3695;53.330;9.876;2023-04-19T09:25:53;103229.28;;;11.33;100.00
7309;BME280;3695;53.330;9.876;2023-04-19T09:28:21;103227.09;;;11.37;100.00
7309;BME280;3695;53.330;9.876;2023-04-19T09:30:48;103231.06;;;11.51;100.00
7309;BME280;3695;53.330;9.876;2023-04-19T09:33:30;103219.19;;;11.60;100.00
7309;BME280;3695;53.330;9.876;2023-04-19T09:35:57;103210.38;;;11.74;100.00
7309;BME280;3695;53.330;9.876;2023-04-19T09:38:25;103215.13;;;11.64;100.00
7309;BME280;3695;53.330;9.876;2023-04-19T09:41:04;103213.03;;;11.92;100.00
7309;BME280;3695;53.330;9.876;2023-04-19T09:43:31;103214.53;;;11.86;100.00
7309;BME280;3695;53.330;9.876;2023-04-19T09:45:58;103198.41;;;12.09;100.00
7309;BME280;3695;53.330;9.876;2023-04-19T09:48:24;103210.13;;;12.26;100.00
7309;BME280;3695;53.330;9.876;2023-04-19T09:50:53;103196.72;;;12.24;100.00
7309;BME280;3695;53.330;9.876;2023-04-19T09:53:21;103198.41;;;12.25;100.00
7309;BME280;3695;53.330;9.876;2023-04-19T09:55:49;103197.72;;;12.23;100.00
7309;BME280;3695;53.330;9.876;2023-04-19T09:58:17;103200.28;;;12.17;100.00
7309;BME280;3695;53.330;9.876;2023-04-19T10:00:44;103200.97;;;12.11;100.00
7309;BME280;3695;53.330;9.876;2023-04-19T10:03:13;103178.19;;;12.04;100.00
7309;BME280;3695;53.330;9.876;2023-04-19T10:05:40;103183.63;;;12.12;100.00
7309;BME280;3695;53.330;9.876;2023-04-19T10:08:07;103181.91;;;12.27;100.00
7309;BME280;3695;53.330;9.876;2023-04-19T10:10:35;103169.69;;;12.15;100.00
7309;BME280;3695;53.330;9.876;2023-04-19T10:13:06;103181.59;;;12.38;100.00
7309;BME280;3695;53.330;9.876;2023-04-19T10:15:33;103175.47;;;12.44;100.00
7309;BME280;3695;53.330;9.876;2023-04-19T10:18:01;103169.03;;;12.37;100.00
7309;BME280;3695;53.330;9.876;2023-04-19T10:20:32;103163.56;;;12.37;100.00
7309;BME280;3695;53.330;9.876;2023-04-19T10:23:01;103162.56;;;12.30;100.00
7309;BME280;3695;53.330;9.876;2023-04-19T10:25:28;103161.88;;;12.20;100.00
7309;BME280;3695;53.330;9.876;2023-04-19T10:27:56;103155.25;;;12.39;100.00
7309;BME280;3695;53.330;9.876;2023-04-19T10:30:24;103138.44;;;12.19;100.00
7309;BME280;3695;53.330;9.876;2023-04-19T10:32:53;103137.41;;;12.20;100.00
7309;BME280;3695;53.330;9.876;2023-04-19T10:35:21;103151.34;;;12.25;100.00
7309;BME280;3695;53.330;9.876;2023-04-19T10:38:02;103127.19;;;12.38;100.00
7309;BME280;3695;53.330;9.876;2023-04-19T10:40:53;103118.88;;;12.40;100.00
7309;BME280;3695;53.330;9.876;2023-04-19T10:43:21;103109.06;;;12.70;100.00
7309;BME280;3695;53.330;9.876;2023-04-19T10:45:49;103102.38;;;12.41;100.00
7309;BME280;3695;53.330;9.876;2023-04-19T10:48:32;103112.59;;;12.39;100.00
7309;BME280;3695;53.330;9.876;2023-04-19T10:51:00;103098.59;;;12.50;100.00
7309;BME280;3695;53.330;9.876;2023-04-19T10:53:47;103092.13;;;12.51;100.00
7309;BME280;3695;53.330;9.876;2023-04-19T10:56:14;103099.31;;;12.44;100.00
7309;BME280;3695;53.330;9.876;2023-04-19T10:59:10;103080.53;;;12.66;100.00
7309;BME280;3695;53.330;9.876;2023-04-19T11:01:40;103061.50;;;12.57;100.00
7309;BME280;3695;53.330;9.876;2023-04-19T11:04:08;103050.59;;;12.66;100.00
7309;BME280;3695;53.330;9.876;2023-04-19T11:06:36;103043.09;;;12.68;100.00
7309;BME280;3695;53.330;9.876;2023-04-19T11:09:02;103041.00;;;12.86;100.00
7309;BME280;3695;53.330;9.876;2023-04-19T11:11:32;103033.47;;;12.57;100.00
7309;BME280;3695;53.330;9.876;2023-04-19T11:13:59;103030.81;;;12.72;100.00
7309;BME280;3695;53.330;9.876;2023-04-19T11:16:27;103037.59;;;12.76;100.00
7309;BME280;3695;53.330;9.876;2023-04-19T11:18:55;103016.91;;;12.67;100.00
7309;BME280;3695;53.330;9.876;2023-04-19T11:21:21;103031.13;;;12.85;100.00
7309;BME280;3695;53.330;9.876;2023-04-19T11:23:48;103022.75;;;12.55;100.00
7309;BME280;3695;53.330;9.876;2023-04-19T11:26:14;103028.09;;;12.80;100.00
7309;BME280;3695;53.330;9.876;2023-04-19T11:28:43;103004.25;;;12.51;100.00
7309;BME280;3695;53.330;9.876;2023-04-19T11:31:10;103010.84;;;12.56;100.00
7309;BME280;3695;53.330;9.876;2023-04-19T11:33:36;103008.03;;;12.81;100.00
7309;BME280;3695;53.330;9.876;2023-04-19T11:36:10;103006.50;;;12.78;100.00
7309;BME280;3695;53.330;9.876;2023-04-19T11:38:36;103009.16;;;13.17;100.00
7309;BME280;3695;53.330;9.876;2023-04-19T11:41:03;102999.69;;;12.74;100.00
7309;BME280;3695;53.330;9.876;2023-04-19T11:43:34;103005.44;;;12.87;100.00
7309;BME280;3695;53.330;9.876;2023-04-19T11:46:04;103009.56;;;12.75;100.00
7309;BME280;3695;53.330;9.876;2023-04-19T11:48:32;103016.50;;;12.86;100.00
7309;BME280;3695;53.330;9.876;2023-04-19T11:50:59;103003.19;;;12.91;100.00
7309;BME280;3695;53.330;9.876;2023-04-19T11:53:29;103003.91;;;13.08;100.00
7309;BME280;3695;53.330;9.876;2023-04-19T11:56:02;102987.28;;;13.03;100.00
7309;BME280;3695;53.330;9.876;2023-04-19T11:58:31;103003.00;;;13.15;100.00
7309;BME280;3695;53.330;9.876;2023-04-19T12:01:04;102994.47;;;13.27;100.00
7309;BME280;3695;53.330;9.876;2023-04-19T12:03:31;103006.88;;;13.29;100.00
7309;BME280;3695;53.330;9.876;2023-04-19T12:06:01;102994.38;;;13.12;100.00
7309;BME280;3695;53.330;9.876;2023-04-19T12:08:31;102994.59;;;13.02;100.00
7309;BME280;3695;53.330;9.876;2023-04-19T12:10:58;102993.16;;;13.14;100.00
7309;BME280;3695;53.330;9.876;2023-04-19T12:13:25;102994.16;;;13.21;100.00
7309;BME280;3695;53.330;9.876;2023-04-19T12:15:51;103007.91;;;13.28;100.00
7309;BME280;3695;53.330;9.876;2023-04-19T12:18:18;102987.25;;;13.34;100.00
7309;BME280;3695;53.330;9.876;2023-04-19T12:20:46;102988.41;;;13.39;100.00
7309;BME280;3695;53.330;9.876;2023-04-19T12:23:13;102979.84;;;12.97;100.00
7309;BME280;3695;53.330;9.876;2023-04-19T12:25:42;102977.91;;;13.05;100.00
7309;BME280;3695;53.330;9.876;2023-04-19T12:28:10;102991.72;;;13.49;100.00
7309;BME280;3695;53.330;9.876;2023-04-19T12:30:37;102978.84;;;13.20;100.00
7309;BME280;3695;53.330;9.876;2023-04-19T12:33:04;102974.97;;;13.38;100.00
7309;BME280;3695;53.330;9.876;2023-04-19T12:35:31;102970.31;;;13.23;100.00
7309;BME280;3695;53.330;9.876;2023-04-19T12:37:58;102971.13;;;13.47;100.00
7309;BME280;3695;53.330;9.876;2023-04-19T12:40:26;102965.47;;;13.34;100.00
7309;BME280;3695;53.330;9.876;2023-04-19T12:42:54;102961.19;;;13.54;100.00
7309;BME280;3695;53.330;9.876;2023-04-19T12:45:20;102964.06;;;13.75;100.00
7309;BME280;3695;53.330;9.876;2023-04-19T12:47:47;102972.66;;;13.64;100.00
7309;BME280;3695;53.330;9.876;2023-04-19T12:50:14;102960.13;;;13.93;100.00
7309;BME280;3695;53.330;9.876;2023-04-19T12:52:41;102955.91;;;13.38;100.00
7309;BME280;3695;53.330;9.876;2023-04-19T12:55:08;102954.91;;;13.68;100.00
7309;BME280;3695;53.330;9.876;2023-04-19T12:57:35;102928.78;;;13.44;100.00
7309;BME280;3695;53.330;9.876;2023-04-19T13:00:04;102941.28;;;13.68;100.00
7309;BME280;3695;53.330;9.876;2023-04-19T13:02:32;102953.34;;;13.89;100.00
7309;BME280;3695;53.330;9.876;2023-04-19T13:04:59;102945.78;;;13.61;100.00
7309;BME280;3695;53.330;9.876;2023-04-19T13:07:25;102939.69;;;13.59;100.00